sensor_id;sensor_type;location;lat;lon;timestamp;pressure;altitude;pressure_sealevel;temperature;humidity
30554;BME280;17335;50.720;7.452;2023-05-07T00:00:35;99342.16;;;13.18;100.00
30554;BME280;17335;50.720;7.452;2023-05-07T00:03:01;99345.50;;;13.11;100.00
30554;BME280;17335;50.720;7.452;2023-05-07T00:05:28;99341.13;;;13.10;100.00
30554;BME280;17335;50.720;7.452;2023-05-07T00:07:55;99333.19;;;13.09;100.00
30554;BME280;17335;50.720;7.452;2023-05-07T00:10:24;99333.31;;;12.99;100.00
30554;BME280;17335;50.720;7.452;2023-05-07T00:12:51;99325.53;;;12.96;100.00
30554;BME280;17335;50.720;7.452;2023-05-07T00:15:18;99323.19;;;12.93;100.00
30554;BME280;17335;50.720;7.452;2023-05-07T00:17:44;99323.50;;;12.90;100.00
30554;BME280;17335;50.720;7.452;2023-05-07T00:20:11;99334.53;;;12.79;100.00
30554;BME280;17335;50.720;7.452;2023-05-07T00:22:38;99337.75;;;12.74;100.00
30554;BME280;17335;50.720;7.452;2023-05-07T00:25:05;99339.72;;;12.72;100.00
30554;BME280;17335;50.720;7.452;2023-05-07T00:27:32;99345.69;;;12.57;100.00
30554;BME280;17335;50.720;7.452;2023-05-07T00:29:58;99338.81;;;12.37;100.00
30554;BME280;17335;50.720;7.452;2023-05-07T00:32:25;99345.56;;;12.41;100.00
30554;BME280;17335;50.720;7.452;2023-05-07T00:34:52;99346.66;;;12.30;100.00
30554;BME280;17335;50.720;7.452;2023-05-07T00:37:19;99336.72;;;12.31;100.00
30554;BME280;17335;50.720;7.452;2023-05-07T00:39:45;99348.38;;;12.31;100.00
30554;BME280;17335;50.720;7.452;2023-05-07T00:42:12;99350.75;;;12.34;100.00
30554;BME280;17335;50.720;7.452;2023-05-07T00:44:38;99348.44;;;12.40;100.00
30554;BME280;17335;50.720;7.452;2023-05-07T00:47:05;99352.66;;;12.42;100.00
30554;BME280;17335;50.720;7.452;2023-05-07T00:49:41;99348.97;;;12.43;100.00
30554;BME280;17335;50.720;7.452;2023-05-07T00:52:11;99346.81;;;12.47;100.00
30554;BME280;17335;50.720;7.452;2023-05-07T00:54:38;99354.56;;;12.50;100.00
30554;BME280;17335;50.720;7.452;2023-05-07T00:57:06;99352.56;;;12.52;100.00
30554;BME280;17335;50.720;7.452;2023-05-07T00:59:33;99339.16;;;12.60;100.00
30554;BME280;17335;50.720;7.452;2023-05-07T01:02:00;99345.78;;;12.48;100.00
30554;BME280;17335;50.720;7.452;2023-05-07T01:04:26;99343.75;;;12.42;100.00
30554;BME280;17335;50.720;7.452;2023-05-07T01:06:55;99348.09;;;12.43;100.00
30554;BME280;17335;50.720;7.452;2023-05-07T01:09:24;99350.63;;;12.44;100.00
30554;BME280;17335;50.720;7.452;2023-05-07T01:11:52;99348.63;;;12.46;100.00
30554;BME280;17335;50.720;7.452;2023-05-07T01:14:20;99343.97;;;12.48;100.00
30554;BME280;17335;50.720;7.452;2023-05-07T01:16:48;99341.94;;;12.50;100.00
30554;BME280;17335;50.720;7.452;2023-05-07T01:19:18;99333.88;;;12.50;100.00
30554;BME280;17335;50.720;7.452;2023-05-07T01:21:47;99323.63;;;12.54;100.00
30554;BME280;17335;50.720;7.452;2023-05-07T01:24:14;99322.44;;;12.56;100.00
30554;BME280;17335;50.720;7.452;2023-05-07T01:26:43;99324.00;;;12.59;100.00
30554;BME280;17335;50.720;7.452;2023-05-07T01:29:10;99321.09;;;12.52;100.00
30554;BME280;17335;50.720;7.452;2023-05-07T01:31:38;99325.63;;;12.52;100.00
30554;BME280;17335;50.720;7.452;2023-05-07T01:34:06;99312.84;;;12.54;100.00
30554;BME280;17335;50.720;7.452;2023-05-07T01:36:35;99314.88;;;12.52;100.00
30554;BME280;17335;50.720;7.452;2023-05-07T01:39:03;99320.09;;;12.53;100.00
30554;BME280;17335;50.720;7.452;2023-05-07T01:41:31;99324.97;;;12.50;100.00
30554;BME280;17335;50.720;7.452;2023-05-07T01:43:59;99324.25;;;12.48;100.00
30554;BME280;17335;50.720;7.452;2023-05-07T01:46:26;99324.09;;;12.49;100.00
30554;BME280;17335;50.720;7.452;2023-05-07T01:48:54;99323.94;;;12.51;100.00
30554;BME280;17335;50.720;7.452;2023-05-07T01:51:21;99323.94;;;12.51;100.00
30554;BME280;17335;50.720;7.452;2023-05-07T01:53:48;99317.41;;;12.53;100.00
30554;BME280;17335;50.720;7.452;2023-05-07T01:56:18;99316.22;;;12.56;100.00
30554;BME280;17335;50.720;7.452;2023-05-07T01:58:45;99319.94;;;12.55;100.00
30554;BME280;17335;50.720;7.452;2023-05-07T02:01:15;99322.28;;;12.58;100.00
30554;BME280;17335;50.720;7.452;2023-05-07T02:03:42;99317.72;;;12.50;100.00
30554;BME280;17335;50.720;7.452;2023-05-07T02:06:09;99317.72;;;12.50;100.00
30554;BME280;17335;50.720;7.452;2023-05-07T02:08:35;99328.34;;;12.52;100.00
30554;BME280;17335;50.720;7.452;2023-05-07T02:11:02;99324.41;;;12.46;100.00
30554;BME280;17335;50.720;7.452;2023-05-07T02:13:30;99328.41;;;12.42;100.00
30554;BME280;17335;50.720;7.452;2023-05-07T02:15:57;99326.56;;;12.43;100.00
30554;BME280;17335;50.720;7.452;2023-05-07T02:18:24;99331.25;;;12.41;100.00
30554;BME280;17335;50.720;7.452;2023-05-07T02:20:50;99328.56;;;12.41;100.00
30554;BME280;17335;50.720;7.452;2023-05-07T02:23:17;99322.88;;;12.44;100.00
30554;BME280;17335;50.720;7.452;2023-05-07T02:25:44;99328.25;;;12.44;100.00
30554;BME280;17335;50.720;7.452;2023-05-07T02:28:11;99326.56;;;12.43;100.00
30554;BME280;17335;50.720;7.452;2023-05-07T02:30:38;99328.41;;;12.42;100.00
30554;BME280;17335;50.720;7.452;2023-05-07T02:33:04;99336.97;;;12.37;100.00
30554;BME280;17335;50.720;7.452;2023-05-07T02:35:32;99326.19;;;12.37;100.00
30554;BME280;17335;50.720;7.452;2023-05-07T02:37:59;99328.34;;;12.34;100.00
30554;BME280;17335;50.720;7.452;2023-05-07T02:40:26;99330.06;;;12.35;100.00
30554;BME280;17335;50.720;7.452;2023-05-07T02:42:52;99324.81;;;12.33;100.00
30554;BME280;17335;50.720;7.452;2023-05-07T02:45:28;99324.66;;;12.35;100.00
30554;BME280;17335;50.720;7.452;2023-05-07T02:47:54;99324.22;;;12.40;100.00
30554;BME280;17335;50.720;7.452;2023-05-07T02:50:21;99329.91;;;12.36;100.00
30554;BME280;17335;50.720;7.452;2023-05-07T02:52:47;99320.50;;;12.41;100.00
30554;BME280;17335;50.720;7.452;2023-05-07T02:55:14;99320.66;;;12.39;100.00
30554;BME280;17335;50.720;7.452;2023-05-07T02:57:41;99316.97;;;12.40;100.00
30554;BME280;17335;50.720;7.452;2023-05-07T03:00:12;99323.34;;;12.39;100.00
30554;BME280;17335;50.720;7.452;2023-05-07T03:02:39;99318.44;;;12.34;100.00
30554;BME280;17335;50.720;7.452;2023-05-07T03:05:06;99312.19;;;12.34;100.00
30554;BME280;17335;50.720;7.452;2023-05-07T03:07:34;99310.84;;;12.30;100.00
30554;BME280;17335;50.720;7.452;2023-05-07T03:10:02;99306.59;;;12.27;100.00
30554;BME280;17335;50.720;7.452;2023-05-07T03:12:29;99306.59;;;12.27;100.00
30554;BME280;17335;50.720;7.452;2023-05-07T03:14:56;99308.59;;;12.25;100.00
30554;BME280;17335;50.720;7.452;2023-05-07T03:17:23;99302.53;;;12.23;100.00
30554;BME280;17335;50.720;7.452;2023-05-07T03:19:49;99297.31;;;12.22;100.00
30554;BME280;17335;50.720;7.452;2023-05-07T03:22:16;99299.84;;;12.23;100.00
30554;BME280;17335;50.720;7.452;2023-05-07T03:24:43;99303.53;;;12.22;100.00
30554;BME280;17335;50.720;7.452;2023-05-07T03:27:09;99303.22;;;12.25;100.00
30554;BME280;17335;50.720;7.452;2023-05-07T03:29:36;99300.84;;;12.22;100.00
30554;BME280;17335;50.720;7.452;2023-05-07T03:32:03;99301.84;;;12.21;100.00
30554;BME280;17335;50.720;7.452;2023-05-07T03:34:29;99302.16;;;12.18;100.00
30554;BME280;17335;50.720;7.452;2023-05-07T03:36:56;99299.78;;;12.15;100.00
30554;BME280;17335;50.720;7.452;2023-05-07T03:39:23;99298.78;;;12.16;100.00
30554;BME280;17335;50.720;7.452;2023-05-07T03:41:49;99289.88;;;12.15;100.00
30554;BME280;17335;50.720;7.452;2023-05-07T03:44:16;99306.88;;;12.16;100.00
30554;BME280;17335;50.720;7.452;2023-05-07T03:46:42;99305.00;;;12.16;100.00
30554;BME280;17335;50.720;7.452;2023-05-07T03:49:09;99305.16;;;12.15;100.00
30554;BME280;17335;50.720;7.452;2023-05-07T03:51:36;99310.53;;;12.15;100.00
30554;BME280;17335;50.720;7.452;2023-05-07T03:54:02;99309.72;;;12.14;100.00
30554;BME280;17335;50.720;7.452;2023-05-07T03:56:29;99309.03;;;12.12;100.00
30554;BME280;17335;50.720;7.452;2023-05-07T03:58:55;99312.25;;;12.16;100.00
30554;BME280;17335;50.720;7.452;2023-05-07T04:01:22;99317.63;;;12.16;100.00
30554;BME280;17335;50.720;7.452;2023-05-07T04:03:49;99317.63;;;12.16;100.00
30554;BME280;17335;50.720;7.452;2023-05-07T04:06:16;99320.00;;;12.19;100.00
30554;BME280;17335;50.720;7.452;2023-05-07T04:08:43;99323.69;;;12.18;100.00
30554;BME280;17335;50.720;7.452;2023-05-07T04:11:10;99328.16;;;12.09;100.00
30554;BME280;17335;50.720;7.452;2023-05-07T04:13:36;99319.56;;;12.06;100.00
30554;BME280;17335;50.720;7.452;2023-05-07T04:16:04;99323.22;;;12.05;100.00
30554;BME280;17335;50.720;7.452;2023-05-07T04:18:31;99321.88;;;12.00;100.00
30554;BME280;17335;50.720;7.452;2023-05-07T04:20:58;99333.31;;;12.03;100.00
30554;BME280;17335;50.720;7.452;2023-05-07T04:23:25;99333.16;;;12.04;100.00
30554;BME280;17335;50.720;7.452;2023-05-07T04:25:51;99335.56;;;12.07;100.00
30554;BME280;17335;50.720;7.452;2023-05-07T04:28:18;99330.00;;;12.09;100.00
30554;BME280;17335;50.720;7.452;2023-05-07T04:30:44;99334.88;;;12.05;100.00
30554;BME280;17335;50.720;7.452;2023-05-07T04:33:11;99332.84;;;12.07;100.00
30554;BME280;17335;50.720;7.452;2023-05-07T04:35:38;99335.94;;;12.12;100.00
30554;BME280;17335;50.720;7.452;2023-05-07T04:38:04;99343.53;;;12.17;100.00
30554;BME280;17335;50.720;7.452;2023-05-07T04:40:31;99337.84;;;12.20;100.00
30554;BME280;17335;50.720;7.452;2023-05-07T04:42:58;99331.84;;;12.26;100.00
30554;BME280;17335;50.720;7.452;2023-05-07T04:45:24;99341.44;;;12.29;100.00
30554;BME280;17335;50.720;7.452;2023-05-07T04:47:51;99338.28;;;12.33;100.00
30554;BME280;17335;50.720;7.452;2023-05-07T04:50:18;99341.19;;;12.40;100.00
30554;BME280;17335;50.720;7.452;2023-05-07T04:52:46;99339.03;;;12.44;100.00
30554;BME280;17335;50.720;7.452;2023-05-07T04:55:13;99340.25;;;12.49;100.00
30554;BME280;17335;50.720;7.452;2023-05-07T04:57:39;99348.53;;;12.56;100.00
30554;BME280;17335;50.720;7.452;2023-05-07T05:00:08;99335.75;;;12.58;100.00
30554;BME280;17335;50.720;7.452;2023-05-07T05:02:36;99340.22;;;12.67;100.00
30554;BME280;17335;50.720;7.452;2023-05-07T05:05:02;99342.94;;;12.75;100.00
30554;BME280;17335;50.720;7.452;2023-05-07T05:07:29;99338.63;;;12.83;100.00
30554;BME280;17335;50.720;7.452;2023-05-07T05:09:56;99328.91;;;12.90;100.00
30554;BME280;17335;50.720;7.452;2023-05-07T05:12:23;99331.47;;;13.00;100.00
30554;BME280;17335;50.720;7.452;2023-05-07T05:14:50;99335.38;;;13.05;100.00
30554;BME280;17335;50.720;7.452;2023-05-07T05:17:16;99332.56;;;13.15;100.00
30554;BME280;17335;50.720;7.452;2023-05-07T05:19:43;99337.13;;;13.23;100.00
30554;BME280;17335;50.720;7.452;2023-05-07T05:22:10;99332.38;;;13.51;100.00
30554;BME280;17335;50.720;7.452;2023-05-07T05:24:36;99321.31;;;13.71;100.00
30554;BME280;17335;50.720;7.452;2023-05-07T05:27:03;99321.09;;;13.56;100.00
30554;BME280;17335;50.720;7.452;2023-05-07T05:29:29;99314.00;;;13.46;100.00
30554;BME280;17335;50.720;7.452;2023-05-07T05:31:57;99322.41;;;13.43;100.00
30554;BME280;17335;50.720;7.452;2023-05-07T05:34:24;99323.59;;;13.49;100.00
30554;BME280;17335;50.720;7.452;2023-05-07T05:36:51;99327.53;;;13.55;100.00
30554;BME280;17335;50.720;7.452;2023-05-07T05:39:17;99326.84;;;13.61;100.00
30554;BME280;17335;50.720;7.452;2023-05-07T05:41:44;99326.19;;;13.67;100.00
30554;BME280;17335;50.720;7.452;2023-05-07T05:44:12;99329.25;;;13.72;100.00
30554;BME280;17335;50.720;7.452;2023-05-07T05:46:38;99326.03;;;13.85;100.00
30554;BME280;17335;50.720;7.452;2023-05-07T05:49:05;99321.34;;;13.95;100.00
30554;BME280;17335;50.720;7.452;2023-05-07T05:51:31;99322.16;;;13.96;100.00
30554;BME280;17335;50.720;7.452;2023-05-07T05:53:58;99318.81;;;14.02;100.00
30554;BME280;17335;50.720;7.452;2023-05-07T05:56:24;99314.09;;;14.04;100.00
30554;BME280;17335;50.720;7.452;2023-05-07T05:58:52;99321.88;;;14.15;100.00
30554;BME280;17335;50.720;7.452;2023-05-07T06:01:18;99324.91;;;14.29;100.00
30554;BME280;17335;50.720;7.452;2023-05-07T06:03:45;99315.78;;;14.38;100.00
30554;BME280;17335;50.720;7.452;2023-05-07T06:06:12;99316.78;;;14.53;100.00
30554;BME280;17335;50.720;7.452;2023-05-07T06:08:40;99315.06;;;14.52;100.00
30554;BME280;17335;50.720;7.452;2023-05-07T06:11:08;99317.31;;;14.65;100.00
30554;BME280;17335;50.720;7.452;2023-05-07T06:13:35;99316.09;;;14.59;100.00
30554;BME280;17335;50.720;7.452;2023-05-07T06:16:02;99320.66;;;14.67;100.00
30554;BME280;17335;50.720;7.452;2023-05-07T06:18:28;99326.75;;;14.69;100.00
30554;BME280;17335;50.720;7.452;2023-05-07T06:20:55;99325.88;;;14.77;100.00
30554;BME280;17335;50.720;7.452;2023-05-07T06:23:22;99330.25;;;14.78;100.00
30554;BME280;17335;50.720;7.452;2023-05-07T06:25:49;99332.13;;;14.86;100.00
30554;BME280;17335;50.720;7.452;2023-05-07T06:28:19;99328.03;;;14.98;100.00
30554;BME280;17335;50.720;7.452;2023-05-07T06:30:46;99322.84;;;15.28;100.00
30554;BME280;17335;50.720;7.452;2023-05-07T06:33:12;99309.78;;;15.40;100.00
30554;BME280;17335;50.720;7.452;2023-05-07T06:35:39;99302.47;;;15.40;100.00
30554;BME280;17335;50.720;7.452;2023-05-07T06:38:05;99315.72;;;15.66;100.00
30554;BME280;17335;50.720;7.452;2023-05-07T06:40:32;99303.25;;;16.11;100.00
30554;BME280;17335;50.720;7.452;2023-05-07T06:42:59;99300.25;;;16.44;100.00
30554;BME280;17335;50.720;7.452;2023-05-07T06:45:25;99299.16;;;16.68;100.00
30554;BME280;17335;50.720;7.452;2023-05-07T06:47:52;99302.63;;;16.77;100.00
30554;BME280;17335;50.720;7.452;2023-05-07T06:50:18;99298.09;;;16.93;100.00
30554;BME280;17335;50.720;7.452;2023-05-07T06:52:45;99296.88;;;16.95;100.00
30554;BME280;17335;50.720;7.452;2023-05-07T06:55:11;99293.03;;;17.04;100.00
30554;BME280;17335;50.720;7.452;2023-05-07T06:57:38;99297.72;;;17.11;100.00
30554;BME280;17335;50.720;7.452;2023-05-07T07:00:05;99288.72;;;17.25;100.00
30554;BME280;17335;50.720;7.452;2023-05-07T07:02:36;99294.13;;;17.10;100.00
30554;BME280;17335;50.720;7.452;2023-05-07T07:05:03;99295.28;;;17.01;100.00
30554;BME280;17335;50.720;7.452;2023-05-07T07:07:31;99287.31;;;17.14;100.00
30554;BME280;17335;50.720;7.452;2023-05-07T07:09:57;99286.34;;;17.37;100.00
30554;BME280;17335;50.720;7.452;2023-05-07T07:12:24;99286.50;;;17.50;100.00
30554;BME280;17335;50.720;7.452;2023-05-07T07:14:52;99291.50;;;17.68;100.00
30554;BME280;17335;50.720;7.452;2023-05-07T07:17:20;99301.28;;;17.84;100.00
30554;BME280;17335;50.720;7.452;2023-05-07T07:19:47;99301.19;;;17.92;100.00
30554;BME280;17335;50.720;7.452;2023-05-07T07:22:13;99295.84;;;17.84;100.00
30554;BME280;17335;50.720;7.452;2023-05-07T07:24:40;99293.28;;;17.76;100.00
30554;BME280;17335;50.720;7.452;2023-05-07T07:27:06;99299.03;;;17.51;100.00
30554;BME280;17335;50.720;7.452;2023-05-07T07:29:33;99297.22;;;17.37;100.00
30554;BME280;17335;50.720;7.452;2023-05-07T07:32:00;99295.69;;;17.49;100.00
30554;BME280;17335;50.720;7.452;2023-05-07T07:34:27;99298.03;;;17.52;100.00
30554;BME280;17335;50.720;7.452;2023-05-07T07:36:53;99299.84;;;17.67;100.00
30554;BME280;17335;50.720;7.452;2023-05-07T07:39:20;99295.19;;;17.82;100.00
30554;BME280;17335;50.720;7.452;2023-05-07T07:41:46;99296.53;;;18.08;100.00
30554;BME280;17335;50.720;7.452;2023-05-07T07:44:13;99294.38;;;18.25;100.00
30554;BME280;17335;50.720;7.452;2023-05-07T07:46:41;99289.25;;;18.36;100.00
30554;BME280;17335;50.720;7.452;2023-05-07T07:49:08;99296.34;;;18.59;100.00
30554;BME280;17335;50.720;7.452;2023-05-07T07:51:35;99289.34;;;18.78;100.00
30554;BME280;17335;50.720;7.452;2023-05-07T07:54:01;99293.91;;;18.71;100.00
30554;BME280;17335;50.720;7.452;2023-05-07T07:56:29;99292.78;;;18.87;100.00
30554;BME280;17335;50.720;7.452;2023-05-07T07:58:56;99297.63;;;18.91;100.00
30554;BME280;17335;50.720;7.452;2023-05-07T08:01:22;99299.25;;;18.86;100.00
30554;BME280;17335;50.720;7.452;2023-05-07T08:03:49;99298.94;;;19.02;100.00
30554;BME280;17335;50.720;7.452;2023-05-07T08:06:16;99296.44;;;19.07;100.00
30554;BME280;17335;50.720;7.452;2023-05-07T08:08:44;99304.97;;;19.33;100.00
30554;BME280;17335;50.720;7.452;2023-05-07T08:11:10;99297.69;;;19.46;100.00
30554;BME280;17335;50.720;7.452;2023-05-07T08:13:38;99302.13;;;19.61;100.00
30554;BME280;17335;50.720;7.452;2023-05-07T08:16:04;99304.66;;;19.69;100.00
30554;BME280;17335;50.720;7.452;2023-05-07T08:18:31;99292.16;;;19.88;100.00
30554;BME280;17335;50.720;7.452;2023-05-07T08:20:57;99294.06;;;19.94;100.00
30554;BME280;17335;50.720;7.452;2023-05-07T08:23:24;99292.59;;;19.98;100.00
30554;BME280;17335;50.720;7.452;2023-05-07T08:25:51;99300.16;;;19.96;100.00
30554;BME280;17335;50.720;7.452;2023-05-07T08:28:20;99302.69;;;20.24;100.00
30554;BME280;17335;50.720;7.452;2023-05-07T08:30:47;99291.78;;;20.18;100.00
30554;BME280;17335;50.720;7.452;2023-05-07T08:33:14;99295.06;;;19.80;100.00
30554;BME280;17335;50.720;7.452;2023-05-07T08:35:41;99295.38;;;20.18;100.00
30554;BME280;17335;50.720;7.452;2023-05-07T08:38:07;99291.38;;;20.54;100.00
30554;BME280;17335;50.720;7.452;2023-05-07T08:40:38;99285.91;;;20.74;100.00
30554;BME280;17335;50.720;7.452;2023-05-07T08:43:05;99291.78;;;20.51;100.00
30554;BME280;17335;50.720;7.452;2023-05-07T08:45:35;99286.13;;;20.46;100.00
30554;BME280;17335;50.720;7.452;2023-05-07T08:48:03;99283.81;;;20.56;100.00
30554;BME280;17335;50.720;7.452;2023-05-07T08:50:31;99275.00;;;20.68;100.00
30554;BME280;17335;50.720;7.452;2023-05-07T08:53:05;99290.09;;;20.43;100.00
30554;BME280;17335;50.720;7.452;2023-05-07T08:55:32;99293.06;;;20.69;100.00
30554;BME280;17335;50.720;7.452;2023-05-07T08:58:00;99295.09;;;20.93;100.00
30554;BME280;17335;50.720;7.452;2023-05-07T09:00:27;99286.28;;;21.05;100.00
30554;BME280;17335;50.720;7.452;2023-05-07T09:02:54;99288.78;;;21.06;100.00
30554;BME280;17335;50.720;7.452;2023-05-07T09:05:20;99281.00;;;21.16;100.00
30554;BME280;17335;50.720;7.452;2023-05-07T09:07:47;99290.19;;;21.29;100.00
30554;BME280;17335;50.720;7.452;2023-05-07T09:10:14;99288.53;;;21.14;100.00
30554;BME280;17335;50.720;7.452;2023-05-07T09:12:40;99279.66;;;21.32;100.00
30554;BME280;17335;50.720;7.452;2023-05-07T09:15:07;99286.50;;;21.55;100.00
30554;BME280;17335;50.720;7.452;2023-05-07T09:17:35;99275.16;;;21.58;100.00
30554;BME280;17335;50.720;7.452;2023-05-07T09:20:05;99278.06;;;21.63;100.00
30554;BME280;17335;50.720;7.452;2023-05-07T09:22:38;99270.13;;;21.55;100.00
30554;BME280;17335;50.720;7.452;2023-05-07T09:25:08;99281.66;;;21.57;100.00
30554;BME280;17335;50.720;7.452;2023-05-07T09:27:36;99276.75;;;21.72;100.00
30554;BME280;17335;50.720;7.452;2023-05-07T09:30:06;99278.00;;;21.77;100.00
30554;BME280;17335;50.720;7.452;2023-05-07T09:32:36;99272.31;;;21.78;100.00
30554;BME280;17335;50.720;7.452;2023-05-07T09:35:14;99274.34;;;21.89;100.00
30554;BME280;17335;50.720;7.452;2023-05-07T09:37:42;99274.03;;;22.04;100.00
30554;BME280;17335;50.720;7.452;2023-05-07T09:40:20;99265.97;;;22.16;100.00
30554;BME280;17335;50.720;7.452;2023-05-07T09:42:48;99269.88;;;21.95;100.00
30554;BME280;17335;50.720;7.452;2023-05-07T09:45:16;99275.41;;;21.88;100.00
30554;BME280;17335;50.720;7.452;2023-05-07T09:47:48;99278.41;;;21.80;100.00
30554;BME280;17335;50.720;7.452;2023-05-07T09:50:16;99270.91;;;21.62;100.00
30554;BME280;17335;50.720;7.452;2023-05-07T09:52:44;99273.34;;;21.84;100.00
30554;BME280;17335;50.720;7.452;2023-05-07T09:55:11;99274.22;;;21.71;100.00
30554;BME280;17335;50.720;7.452;2023-05-07T09:57:39;99263.53;;;22.01;100.00
30554;BME280;17335;50.720;7.452;2023-05-07T10:00:07;99268.16;;;22.26;100.00
30554;BME280;17335;50.720;7.452;2023-05-07T10:02:35;99277.34;;;22.38;100.00
30554;BME280;17335;50.720;7.452;2023-05-07T10:05:03;99268.84;;;22.28;100.00
30554;BME280;17335;50.720;7.452;2023-05-07T10:07:30;99267.81;;;22.47;100.00
30554;BME280;17335;50.720;7.452;2023-05-07T10:09:57;99256.59;;;22.56;100.00
30554;BME280;17335;50.720;7.452;2023-05-07T10:12:26;99254.19;;;22.41;100.00
30554;BME280;17335;50.720;7.452;2023-05-07T10:14:54;99256.84;;;22.73;100.00
30554;BME280;17335;50.720;7.452;2023-05-07T10:17:23;99251.25;;;22.42;100.00
30554;BME280;17335;50.720;7.452;2023-05-07T10:19:50;99249.09;;;22.70;100.00
30554;BME280;17335;50.720;7.452;2023-05-07T10:22:19;99259.13;;;22.94;100.00
30554;BME280;17335;50.720;7.452;2023-05-07T10:24:48;99249.16;;;23.00;100.00
30554;BME280;17335;50.720;7.452;2023-05-07T10:27:18;99249.50;;;22.92;94.36
30554;BME280;17335;50.720;7.452;2023-05-07T10:32:47;99246.03;;;23.52;100.00
30554;BME280;17335;50.720;7.452;2023-05-07T10:35:21;99244.00;;;23.29;100.00
30554;BME280;17335;50.720;7.452;2023-05-07T10:37:49;99245.31;;;23.26;100.00
30554;BME280;17335;50.720;7.452;2023-05-07T10:40:16;99240.47;;;23.10;100.00
30554;BME280;17335;50.720;7.452;2023-05-07T10:42:57;99246.47;;;23.18;100.00
30554;BME280;17335;50.720;7.452;2023-05-07T10:45:27;99246.91;;;23.34;99.25
30554;BME280;17335;50.720;7.452;2023-05-07T10:51:18;99248.63;;;23.47;100.00
30554;BME280;17335;50.720;7.452;2023-05-07T10:53:45;99250.84;;;23.68;100.00
30554;BME280;17335;50.720;7.452;2023-05-07T10:58:45;99241.34;;;24.13;100.00
30554;BME280;17335;50.720;7.452;2023-05-07T11:01:11;99229.56;;;24.36;95.86
30554;BME280;17335;50.720;7.452;2023-05-07T11:04:12;99230.25;;;23.66;89.70
30554;BME280;17335;50.720;7.452;2023-05-07T11:06:40;99233.53;;;23.56;94.51
30554;BME280;17335;50.720;7.452;2023-05-07T11:09:07;99228.09;;;23.37;100.00
30554;BME280;17335;50.720;7.452;2023-05-07T11:11:50;99234.44;;;23.19;100.00
30554;BME280;17335;50.720;7.452;2023-05-07T11:14:43;99229.13;;;23.25;100.00
30554;BME280;17335;50.720;7.452;2023-05-07T11:17:11;99222.69;;;23.31;100.00
30554;BME280;17335;50.720;7.452;2023-05-07T11:19:54;99228.25;;;23.24;100.00
30554;BME280;17335;50.720;7.452;2023-05-07T11:25:00;99225.38;;;23.19;100.00
30554;BME280;17335;50.720;7.452;2023-05-07T11:27:28;99229.28;;;23.11;100.00
30554;BME280;17335;50.720;7.452;2023-05-07T11:29:56;99238.22;;;22.81;100.00
30554;BME280;17335;50.720;7.452;2023-05-07T11:32:23;99230.25;;;22.80;100.00
30554;BME280;17335;50.720;7.452;2023-05-07T11:34:53;99226.59;;;22.86;100.00
30554;BME280;17335;50.720;7.452;2023-05-07T11:37:21;99230.75;;;22.70;100.00
30554;BME280;17335;50.720;7.452;2023-05-07T11:39:48;99222.38;;;22.46;100.00
30554;BME280;17335;50.720;7.452;2023-05-07T11:44:54;99213.28;;;22.27;100.00
30554;BME280;17335;50.720;7.452;2023-05-07T11:47:20;99223.00;;;22.23;100.00
30554;BME280;17335;50.720;7.452;2023-05-07T11:49:48;99220.56;;;22.59;100.00
30554;BME280;17335;50.720;7.452;2023-05-07T11:52:16;99220.69;;;23.08;100.00
30554;BME280;17335;50.720;7.452;2023-05-07T11:54:52;99224.38;;;23.32;98.57
30554;BME280;17335;50.720;7.452;2023-05-07T11:57:19;99218.72;;;23.45;96.58
30554;BME280;17335;50.720;7.452;2023-05-07T11:59:46;99216.03;;;23.27;99.33
30554;BME280;17335;50.720;7.452;2023-05-07T12:02:17;99221.41;;;22.96;100.00
30554;BME280;17335;50.720;7.452;2023-05-07T12:04:44;99219.91;;;22.82;100.00
30554;BME280;17335;50.720;7.452;2023-05-07T12:07:14;99219.38;;;22.73;100.00
30554;BME280;17335;50.720;7.452;2023-05-07T12:09:42;99218.13;;;22.51;100.00
30554;BME280;17335;50.720;7.452;2023-05-07T12:12:09;99222.44;;;22.40;100.00
30554;BME280;17335;50.720;7.452;2023-05-07T12:14:42;99228.06;;;22.20;100.00
30554;BME280;17335;50.720;7.452;2023-05-07T12:17:11;99223.25;;;21.90;100.00
30554;BME280;17335;50.720;7.452;2023-05-07T12:19:39;99231.47;;;21.58;100.00
30554;BME280;17335;50.720;7.452;2023-05-07T12:22:09;99234.00;;;21.53;100.00
30554;BME280;17335;50.720;7.452;2023-05-07T12:24:58;99233.41;;;21.51;100.00
30554;BME280;17335;50.720;7.452;2023-05-07T12:27:25;99232.13;;;21.47;100.00
30554;BME280;17335;50.720;7.452;2023-05-07T12:29:52;99224.56;;;21.49;100.00
30554;BME280;17335;50.720;7.452;2023-05-07T12:32:21;99228.28;;;21.61;100.00
30554;BME280;17335;50.720;7.452;2023-05-07T12:34:51;99238.09;;;21.69;100.00
30554;BME280;17335;50.720;7.452;2023-05-07T12:37:23;99237.03;;;21.77;100.00
30554;BME280;17335;50.720;7.452;2023-05-07T12:40:08;99232.16;;;21.79;100.00
30554;BME280;17335;50.720;7.452;2023-05-07T12:42:38;99238.31;;;21.99;100.00
30554;BME280;17335;50.720;7.452;2023-05-07T12:45:09;99229.19;;;22.37;100.00
30554;BME280;17335;50.720;7.452;2023-05-07T12:47:36;99225.25;;;22.33;100.00
30554;BME280;17335;50.720;7.452;2023-05-07T12:50:07;99226.31;;;22.32;100.00
30554;BME280;17335;50.720;7.452;2023-05-07T12:52:34;99233.38;;;22.40;100.00
30554;BME280;17335;50.720;7.452;2023-05-07T12:55:05;99237.63;;;22.36;100.00
30554;BME280;17335;50.720;7.452;2023-05-07T12:57:42;99241.69;;;22.26;100.00
30554;BME280;17335;50.720;7.452;2023-05-07T13:00:09;99243.75;;;22.31;100.00
30554;BME280;17335;50.720;7.452;2023-05-07T13:02:41;99245.53;;;22.19;100.00
30554;BME280;17335;50.720;7.452;2023-05-07T13:05:11;99245.09;;;22.22;100.00
30554;BME280;17335;50.720;7.452;2023-05-07T13:07:39;99235.13;;;22.34;100.00